createdAt,value
2018-01-21T00:01:49.542Z,21.17
2018-01-21T00:04:16.395Z,27.73
2018-01-21T00:06:43.258Z,22.67
2018-01-21T00:09:10.213Z,17.70
2018-01-21T00:11:37.066Z,25.40
2018-01-21T00:14:03.958Z,19.27
2018-01-21T00:16:30.825Z,17.65
2018-01-21T00:18:57.699Z,19.20
2018-01-21T00:21:24.536Z,20.30
2018-01-21T00:23:51.389Z,20.40
2018-01-21T00:26:18.978Z,16.40
2018-01-21T00:28:45.934Z,16.75
2018-01-21T00:31:12.747Z,20.88
2018-01-21T00:33:39.587Z,21.35
2018-01-21T00:36:07.202Z,17.08
2018-01-21T00:38:34.077Z,20.08
2018-01-21T00:41:01.685Z,18.58
2018-01-21T00:43:28.630Z,19.62
2018-01-21T00:45:55.520Z,18.80
2018-01-21T00:48:23.181Z,19.77
2018-01-21T00:50:50.076Z,23.25
2018-01-21T00:53:16.925Z,19.85
2018-01-21T00:55:43.905Z,17.75
2018-01-21T00:58:11.601Z,19.92
2018-01-21T01:00:38.466Z,21.48
2018-01-21T01:03:05.318Z,16.90
2018-01-21T01:05:32.160Z,19.17
2018-01-21T01:07:59.045Z,18.23
2018-01-21T01:10:25.910Z,20.05
2018-01-21T01:12:52.741Z,17.48
2018-01-21T01:15:19.590Z,18.83
2018-01-21T01:17:47.227Z,17.15
2018-01-21T01:20:14.103Z,17.45
2018-01-21T01:22:41.086Z,16.48
2018-01-21T01:25:07.941Z,23.90
2018-01-21T01:27:34.821Z,15.82
2018-01-21T01:30:02.450Z,18.10
2018-01-21T01:32:32.054Z,17.73
2018-01-21T01:34:58.917Z,19.90
2018-01-21T01:37:25.802Z,16.95
2018-01-21T01:39:52.665Z,18.10
2018-01-21T01:42:19.502Z,14.87
2018-01-21T01:44:46.373Z,16.77
2018-01-21T01:47:13.190Z,22.70
2018-01-21T01:49:40.098Z,20.20
2018-01-21T01:52:07.690Z,17.25
2018-01-21T01:54:34.513Z,18.12
2018-01-21T01:57:01.378Z,18.35
2018-01-21T01:59:28.246Z,19.77
2018-01-21T02:01:55.084Z,18.58
2018-01-21T02:04:22.734Z,21.58
2018-01-21T02:06:49.590Z,17.48
2018-01-21T02:09:16.464Z,16.70
2018-01-21T02:11:43.406Z,16.62
2018-01-21T02:14:10.258Z,15.45
2018-01-21T02:16:37.078Z,14.20
2018-01-21T02:19:04.063Z,17.70
2018-01-21T02:21:31.674Z,18.62
2018-01-21T02:23:58.510Z,17.50
2018-01-21T02:26:25.385Z,16.85
2018-01-21T02:28:52.217Z,18.55
2018-01-21T02:31:19.106Z,15.05
2018-01-21T02:33:45.946Z,18.52
2018-01-21T02:36:12.798Z,16.85
2018-01-21T02:38:40.430Z,18.35
2018-01-21T02:41:07.248Z,19.95
2018-01-21T02:43:34.121Z,17.12
2018-01-21T02:46:01.727Z,15.18
2018-01-21T02:48:28.632Z,19.42
2018-01-21T02:50:55.530Z,22.77
2018-01-21T02:53:22.401Z,16.27
2018-01-21T02:55:49.989Z,16.45
2018-01-21T02:58:17.623Z,12.68
2018-01-21T03:00:45.218Z,15.55
2018-01-21T03:03:12.086Z,17.00
2018-01-21T03:05:38.953Z,13.43
2018-01-21T03:08:05.813Z,15.43
2018-01-21T03:10:32.638Z,15.48
2018-01-21T03:12:59.514Z,15.43
2018-01-21T03:15:27.114Z,14.95
2018-01-21T03:17:53.997Z,15.07
2018-01-21T03:20:21.634Z,17.05
2018-01-21T03:22:48.486Z,14.95
2018-01-21T03:25:15.302Z,15.43
2018-01-21T03:27:43.042Z,16.58
2018-01-21T03:30:09.909Z,16.80
2018-01-21T03:32:36.747Z,20.60
2018-01-21T03:35:03.622Z,17.25
2018-01-21T03:37:30.473Z,15.35
2018-01-21T03:39:57.357Z,17.80
2018-01-21T03:42:24.926Z,17.60
2018-01-21T03:44:51.807Z,17.77
2018-01-21T03:47:18.685Z,14.80
2018-01-21T03:49:45.523Z,17.37
2018-01-21T03:52:12.402Z,15.60
2018-01-21T03:54:39.248Z,21.95
2018-01-21T03:57:06.098Z,15.13
2018-01-21T03:59:32.941Z,17.33
2018-01-21T04:01:59.782Z,18.27
2018-01-21T04:04:26.653Z,16.73
2018-01-21T04:06:53.470Z,15.38
2018-01-21T04:09:20.330Z,18.20
2018-01-21T04:11:47.193Z,16.80
2018-01-21T04:14:14.045Z,15.13
2018-01-21T04:16:41.727Z,15.60
2018-01-21T04:19:09.346Z,17.37
2018-01-21T04:21:36.201Z,18.37
2018-01-21T04:24:03.071Z,17.02
2018-01-21T04:26:30.651Z,22.00
2018-01-21T04:28:57.568Z,19.52
2018-01-21T04:31:25.145Z,15.77
2018-01-21T04:33:52.010Z,21.20
2018-01-21T04:36:18.902Z,18.00
2018-01-21T04:38:46.565Z,16.92
2018-01-21T04:41:13.416Z,15.15
2018-01-21T04:43:41.057Z,17.55
2018-01-21T04:46:07.904Z,16.58
2018-01-21T04:48:34.849Z,16.20
2018-01-21T04:51:01.706Z,16.42
2018-01-21T04:53:29.334Z,18.35
2018-01-21T04:55:56.209Z,17.90
2018-01-21T04:58:23.141Z,15.82
2018-01-21T05:00:50.035Z,19.73
2018-01-21T05:03:16.878Z,17.30
2018-01-21T05:05:43.758Z,19.95
2018-01-21T05:08:10.649Z,17.10
2018-01-21T05:10:37.539Z,18.33
2018-01-21T05:13:04.397Z,18.80
2018-01-21T05:15:31.368Z,17.70
2018-01-21T05:17:58.184Z,17.25
2018-01-21T05:20:25.023Z,16.00
2018-01-21T05:22:51.881Z,14.87
2018-01-21T05:25:18.826Z,19.77
2018-01-21T05:27:46.485Z,15.85
2018-01-21T05:30:13.321Z,19.40
2018-01-21T05:32:40.166Z,16.77
2018-01-21T05:35:07.026Z,17.35
2018-01-21T05:37:34.688Z,21.67
2018-01-21T05:40:02.346Z,17.42
2018-01-21T05:42:29.953Z,18.35
2018-01-21T05:44:56.818Z,21.65
2018-01-21T05:47:23.660Z,16.85
2018-01-21T05:49:50.504Z,16.00
2018-01-21T05:52:17.320Z,21.67
2018-01-21T05:54:44.185Z,18.40
2018-01-21T05:57:11.047Z,20.15
2018-01-21T05:59:37.877Z,17.00
2018-01-21T06:02:04.754Z,21.58
2018-01-21T06:04:31.609Z,20.45
2018-01-21T06:06:58.531Z,21.30
2018-01-21T06:09:25.554Z,16.80
2018-01-21T06:11:52.454Z,18.20
2018-01-21T06:14:19.349Z,19.42
2018-01-21T06:16:46.620Z,18.05
2018-01-21T06:19:13.609Z,18.17
2018-01-21T06:21:40.709Z,20.92
2018-01-21T06:24:07.610Z,23.77
2018-01-21T06:26:34.451Z,21.92
2018-01-21T06:29:01.502Z,22.95
2018-01-21T06:31:29.176Z,20.25
2018-01-21T06:33:56.789Z,21.35
2018-01-21T06:36:24.366Z,22.70
2018-01-21T06:38:51.346Z,23.05
2018-01-21T06:41:18.163Z,21.08
2018-01-21T06:43:45.038Z,19.92
2018-01-21T06:46:11.893Z,23.00
2018-01-21T06:48:38.830Z,18.48
2018-01-21T06:51:05.681Z,17.98
2018-01-21T06:53:32.541Z,22.40
2018-01-21T06:55:59.409Z,16.33
2018-01-21T06:58:26.346Z,19.10
2018-01-21T07:00:53.197Z,19.50
2018-01-21T07:03:20.047Z,19.27
2018-01-21T07:05:46.931Z,19.30
2018-01-21T07:08:14.042Z,22.58
2018-01-21T07:10:41.194Z,28.38
2018-01-21T07:13:08.119Z,26.67
2018-01-21T07:15:34.957Z,27.25
2018-01-21T07:18:02.613Z,26.25
2018-01-21T07:20:30.201Z,26.87
2018-01-21T07:22:57.063Z,29.27
2018-01-21T07:25:23.937Z,25.35
2018-01-21T07:27:51.912Z,28.38
2018-01-21T07:30:19.502Z,28.02
2018-01-21T07:32:47.149Z,26.23
2018-01-21T07:35:14.046Z,29.92
2018-01-21T07:37:41.937Z,24.08
2018-01-21T07:40:08.966Z,27.30
2018-01-21T07:42:35.817Z,31.02
2018-01-21T07:45:02.918Z,26.10
2018-01-21T07:47:29.958Z,23.40
2018-01-21T07:49:57.514Z,24.02
2018-01-21T07:52:25.102Z,24.17
2018-01-21T07:54:51.969Z,26.85
2018-01-21T07:57:18.791Z,25.70
2018-01-21T07:59:45.679Z,27.98
2018-01-21T08:02:13.277Z,25.30
2018-01-21T08:04:40.495Z,23.90
2018-01-21T08:07:07.566Z,23.77
2018-01-21T08:09:34.470Z,23.20
2018-01-21T08:12:01.314Z,27.52
2018-01-21T08:14:28.158Z,24.70
2018-01-21T08:16:55.010Z,25.58
2018-01-21T08:19:21.942Z,22.08
2018-01-21T08:21:48.828Z,25.80
2018-01-21T08:24:16.395Z,27.35
2018-01-21T08:26:43.959Z,24.67
2018-01-21T08:29:10.895Z,24.17
2018-01-21T08:31:37.734Z,24.23
2018-01-21T08:34:10.714Z,22.60
2018-01-21T08:36:44.301Z,23.62
2018-01-21T08:39:17.925Z,23.05
2018-01-21T08:41:45.554Z,28.92
2018-01-21T08:44:13.236Z,21.20
2018-01-21T08:46:40.154Z,19.83
2018-01-21T08:49:07.126Z,25.65
2018-01-21T08:51:34.696Z,18.90
2018-01-21T08:54:01.626Z,16.42
2018-01-21T08:56:28.482Z,22.80
2018-01-21T08:58:56.105Z,18.37
2018-01-21T09:01:22.969Z,26.10
2018-01-21T09:03:50.578Z,26.73
2018-01-21T09:06:17.493Z,20.55
2018-01-21T09:08:45.278Z,19.73
2018-01-21T09:11:12.171Z,24.55
2018-01-21T09:13:39.030Z,16.75
2018-01-21T09:16:06.625Z,19.00
2018-01-21T09:18:33.510Z,21.30
2018-01-21T09:21:00.378Z,27.13
2018-01-21T09:23:27.230Z,19.90
2018-01-21T09:25:54.801Z,21.65
2018-01-21T09:28:22.454Z,20.70
2018-01-21T09:30:50.019Z,22.55
2018-01-21T09:33:17.558Z,21.33
2018-01-21T09:35:44.402Z,20.60
2018-01-21T09:38:12.082Z,17.60
2018-01-21T09:40:38.893Z,17.83
2018-01-21T09:43:05.770Z,21.10
2018-01-21T09:45:32.634Z,16.75
2018-01-21T09:47:59.702Z,18.05
2018-01-21T09:50:26.594Z,20.20
2018-01-21T09:52:54.186Z,19.45
2018-01-21T09:55:21.069Z,24.05
2018-01-21T09:57:48.754Z,24.00
2018-01-21T10:00:16.342Z,21.60
2018-01-21T10:02:43.210Z,23.65
2018-01-21T10:05:10.814Z,22.25
2018-01-21T10:07:38.465Z,19.15
2018-01-21T10:10:06.134Z,21.67
2018-01-21T10:12:33.755Z,19.45
2018-01-21T10:15:00.642Z,21.77
2018-01-21T10:17:27.605Z,18.67
2018-01-21T10:19:54.521Z,18.50
2018-01-21T10:22:22.110Z,18.47
2018-01-21T10:24:48.982Z,15.43
2018-01-21T10:27:15.921Z,17.07
2018-01-21T10:29:42.825Z,16.40
2018-01-21T10:32:09.930Z,23.37
2018-01-21T10:34:36.762Z,17.33
2018-01-21T10:37:03.594Z,17.57
2018-01-21T10:39:30.565Z,16.53
2018-01-21T10:41:57.414Z,19.60
2018-01-21T10:44:24.270Z,17.83
2018-01-21T10:46:51.151Z,16.23
2018-01-21T10:49:18.821Z,16.83
2018-01-21T10:51:46.398Z,15.90
2018-01-21T10:54:13.241Z,16.40
2018-01-21T10:56:40.159Z,17.83
2018-01-21T10:59:07.830Z,23.10
2018-01-21T11:01:34.663Z,18.33
2018-01-21T11:04:01.542Z,19.43
2018-01-21T11:06:28.369Z,17.33
2018-01-21T11:08:55.247Z,17.50
2018-01-21T11:11:22.286Z,17.50
2018-01-21T11:13:49.122Z,16.83
2018-01-21T11:16:15.966Z,16.60
2018-01-21T11:18:42.965Z,14.93
2018-01-21T11:21:10.561Z,16.40
2018-01-21T11:23:37.390Z,15.53
2018-01-21T11:26:04.281Z,14.97
2018-01-21T11:28:31.133Z,18.07
2018-01-21T11:30:57.997Z,16.00
2018-01-21T11:33:25.578Z,17.40
2018-01-21T11:35:52.450Z,11.53
2018-01-21T11:38:19.443Z,5.07
2018-01-21T11:40:47.037Z,1.83
2018-01-21T11:43:13.909Z,1.70
2018-01-21T11:45:40.738Z,0.87
2018-01-21T11:48:07.597Z,0.80
2018-01-21T11:50:34.506Z,1.80
2018-01-21T11:53:01.354Z,0.87
2018-01-21T11:55:28.182Z,1.67
2018-01-21T11:57:55.234Z,0.90
2018-01-21T12:00:22.070Z,0.83
2018-01-21T12:02:48.945Z,0.97
2018-01-21T12:05:15.781Z,1.10
2018-01-21T12:07:43.733Z,0.80
2018-01-21T12:10:10.630Z,1.00
2018-01-21T12:12:37.466Z,1.40
2018-01-21T12:15:04.286Z,1.83
2018-01-21T12:17:31.219Z,1.40
2018-01-21T12:19:58.047Z,0.80
2018-01-21T12:22:24.927Z,0.93
2018-01-21T12:24:51.784Z,1.20
2018-01-21T12:27:18.758Z,1.07
2018-01-21T12:29:46.368Z,0.90
2018-01-21T12:32:13.225Z,1.20
2018-01-21T12:34:40.049Z,0.70
2018-01-21T12:37:06.936Z,2.40
2018-01-21T12:39:33.853Z,1.00
2018-01-21T12:42:00.717Z,0.70
2018-01-21T12:44:27.549Z,1.30
2018-01-21T12:46:54.413Z,0.90
2018-01-21T12:49:22.065Z,1.40
2018-01-21T12:51:49.669Z,0.90
2018-01-21T12:54:16.549Z,1.17
2018-01-21T12:56:43.412Z,3.80
2018-01-21T12:59:10.343Z,0.70
2018-01-21T13:01:37.189Z,1.37
2018-01-21T13:04:04.774Z,0.90
2018-01-21T13:06:32.341Z,1.10
2018-01-21T13:08:59.984Z,0.70
2018-01-21T13:11:26.826Z,0.90
2018-01-21T13:13:54.421Z,0.57
2018-01-21T13:16:21.256Z,0.70
2018-01-21T13:18:48.165Z,1.10
2018-01-21T13:21:15.790Z,0.50
2018-01-21T13:23:42.641Z,0.70
2018-01-21T13:26:09.516Z,0.70
2018-01-21T13:28:37.162Z,1.00
2018-01-21T13:31:04.042Z,0.63
2018-01-21T13:33:31.665Z,1.40
2018-01-21T13:35:58.510Z,3.60
2018-01-21T13:38:25.585Z,1.63
2018-01-21T13:40:52.426Z,0.80
2018-01-21T13:43:20.034Z,0.80
2018-01-21T13:45:46.934Z,0.97
2018-01-21T13:48:13.877Z,0.80
2018-01-21T13:50:40.758Z,0.80
2018-01-21T13:53:07.687Z,1.37
2018-01-21T13:55:34.546Z,1.03
2018-01-21T13:58:01.429Z,2.07
2018-01-21T14:00:28.614Z,3.77
2018-01-21T14:02:56.185Z,9.30
2018-01-21T14:05:23.037Z,2.70
2018-01-21T14:07:49.993Z,4.43
2018-01-21T14:10:16.843Z,1.20
2018-01-21T14:12:43.709Z,1.40
2018-01-21T14:15:11.310Z,3.73
2018-01-21T14:17:38.952Z,1.13
2018-01-21T14:20:05.817Z,1.37
2018-01-21T14:22:32.688Z,0.80
2018-01-21T14:24:59.565Z,1.17
2018-01-21T14:27:26.520Z,0.90
2018-01-21T14:29:53.389Z,1.00
2018-01-21T14:32:20.249Z,1.97
2018-01-21T14:34:47.103Z,1.03
2018-01-21T14:37:14.019Z,1.20
2018-01-21T14:39:40.936Z,1.37
2018-01-21T14:42:08.609Z,1.33
2018-01-21T14:44:36.245Z,0.97
2018-01-21T14:47:03.106Z,1.00
2018-01-21T14:49:30.749Z,0.70
2018-01-21T14:51:57.657Z,1.20
2018-01-21T14:54:24.526Z,2.17
2018-01-21T14:56:51.449Z,0.70
2018-01-21T14:59:18.337Z,1.73
2018-01-21T15:01:45.221Z,0.60
2018-01-21T15:04:12.083Z,0.85
2018-01-21T15:06:38.990Z,0.80
2018-01-21T15:09:06.669Z,1.17
2018-01-21T15:11:33.561Z,0.88
2018-01-21T15:14:00.430Z,2.10
2018-01-21T15:16:27.326Z,0.85
2018-01-21T15:18:54.210Z,1.45
2018-01-21T15:21:21.064Z,1.63
2018-01-21T15:23:49.491Z,1.02
2018-01-21T15:26:16.349Z,2.10
2018-01-21T15:28:43.217Z,0.82
2018-01-21T15:31:10.856Z,1.67
2018-01-21T15:33:37.705Z,1.12
2018-01-21T15:36:04.537Z,4.57
2018-01-21T15:38:31.445Z,1.40
2018-01-21T15:40:58.301Z,2.72
2018-01-21T15:43:25.170Z,1.65
2018-01-21T15:45:52.831Z,3.15
2018-01-21T15:48:19.906Z,1.60
2018-01-21T15:50:46.745Z,3.17
2018-01-21T15:53:15.026Z,1.65
2018-01-21T15:55:42.209Z,1.95
2018-01-21T15:58:09.314Z,2.70
2018-01-21T16:00:44.998Z,1.75
2018-01-21T16:03:12.862Z,3.53
2018-01-21T16:05:40.178Z,2.97
2018-01-21T16:08:07.486Z,1.50
2018-01-21T16:10:34.463Z,1.48
2018-01-21T16:13:01.381Z,1.10
2018-01-21T16:15:28.594Z,1.42
2018-01-21T16:17:55.998Z,2.00
2018-01-21T16:20:22.895Z,5.03
2018-01-21T16:22:50.535Z,1.52
2018-01-21T16:25:17.694Z,2.28
2018-01-21T16:27:44.713Z,2.15
2018-01-21T16:30:12.529Z,1.52
2018-01-21T16:32:39.542Z,1.10
2018-01-21T16:35:07.123Z,1.00
2018-01-21T16:37:46.350Z,0.70
2018-01-21T16:40:14.180Z,4.70
2018-01-21T16:42:41.631Z,0.90
2018-01-21T16:45:08.717Z,3.28
2018-01-21T16:47:35.699Z,2.30
2018-01-21T16:50:02.666Z,3.53
2018-01-21T16:52:29.637Z,3.08
2018-01-21T16:54:56.570Z,1.12
2018-01-21T16:57:34.970Z,1.37
2018-01-21T17:00:01.995Z,1.45
2018-01-21T17:02:28.900Z,3.58
2018-01-21T17:04:55.899Z,4.22
2018-01-21T17:07:22.974Z,7.90
2018-01-21T17:09:49.936Z,5.30
2018-01-21T17:12:16.966Z,3.67
2018-01-21T17:14:43.901Z,2.30
2018-01-21T17:17:10.812Z,3.35
2018-01-21T17:19:37.876Z,1.98
2018-01-21T17:22:04.838Z,1.62
2018-01-21T17:24:31.782Z,2.97
2018-01-21T17:26:58.693Z,1.80
2018-01-21T17:29:25.674Z,2.75
2018-01-21T17:31:52.686Z,4.75
2018-01-21T17:34:19.723Z,3.05
2018-01-21T17:36:46.771Z,4.50
2018-01-21T17:39:13.869Z,1.87
2018-01-21T17:41:40.950Z,2.08
2018-01-21T17:44:08.811Z,3.37
2018-01-21T17:46:35.914Z,5.62
2018-01-21T17:49:02.979Z,7.25
2018-01-21T17:51:30.063Z,5.70
2018-01-21T17:53:57.215Z,3.45
2018-01-21T17:56:24.187Z,2.95
2018-01-21T17:58:51.140Z,3.65
2018-01-21T18:01:18.070Z,3.40
2018-01-21T18:03:44.948Z,2.40
2018-01-21T18:06:11.838Z,1.77
2018-01-21T18:08:39.683Z,1.30
2018-01-21T18:11:06.722Z,2.70
2018-01-21T18:13:33.674Z,2.62
2018-01-21T18:16:00.670Z,2.30
2018-01-21T18:18:27.593Z,1.80
2018-01-21T18:20:55.459Z,2.15
2018-01-21T18:23:22.534Z,2.70
2018-01-21T18:25:49.502Z,6.53
2018-01-21T18:28:16.675Z,2.95
2018-01-21T18:30:43.727Z,2.23
2018-01-21T18:33:11.472Z,2.30
2018-01-21T18:35:38.330Z,1.40
2018-01-21T18:38:06.050Z,2.55
2018-01-21T18:40:33.161Z,4.78
2018-01-21T18:43:00.825Z,2.97
2018-01-21T18:45:27.748Z,2.42
2018-01-21T18:47:54.881Z,3.10
2018-01-21T18:50:22.032Z,2.15
2018-01-21T18:52:49.915Z,2.95
2018-01-21T18:55:16.976Z,2.45
2018-01-21T18:57:44.279Z,3.30
2018-01-21T19:00:12.003Z,3.30
2018-01-21T19:02:39.030Z,2.97
2018-01-21T19:05:05.954Z,4.43
2018-01-21T19:07:33.057Z,3.03
2018-01-21T19:10:00.097Z,3.87
2018-01-21T19:12:27.189Z,4.07
2018-01-21T19:14:54.241Z,5.95
2018-01-21T19:17:21.446Z,12.77
2018-01-21T19:19:49.166Z,14.45
2018-01-21T19:22:16.787Z,12.52
2018-01-21T19:24:43.878Z,11.25
2018-01-21T19:27:11.551Z,14.55
2018-01-21T19:29:38.470Z,10.60
2018-01-21T19:32:07.465Z,14.45
2018-01-21T19:34:34.467Z,14.27
2018-01-21T19:37:01.498Z,15.65
2018-01-21T19:39:35.486Z,10.65
2018-01-21T19:42:07.517Z,10.90
2018-01-21T19:44:34.710Z,10.48
2018-01-21T19:47:01.735Z,10.43
2018-01-21T19:49:28.819Z,7.47
2018-01-21T19:51:55.931Z,6.37
2018-01-21T19:54:23.126Z,10.57
2018-01-21T19:56:50.181Z,12.75
2018-01-21T19:59:18.086Z,6.90
2018-01-21T20:01:45.083Z,8.73
2018-01-21T20:04:12.684Z,6.12
2018-01-21T20:06:39.554Z,7.85
2018-01-21T20:09:06.989Z,7.57
2018-01-21T20:11:33.885Z,7.18
2018-01-21T20:14:01.721Z,6.40
2018-01-21T20:16:28.841Z,6.30
2018-01-21T20:18:55.752Z,5.22
2018-01-21T20:21:23.382Z,6.15
2018-01-21T20:23:50.527Z,8.63
2018-01-21T20:26:17.441Z,11.70
2018-01-21T20:28:44.344Z,12.30
2018-01-21T20:31:11.214Z,7.30
2018-01-21T20:33:38.070Z,5.80
2018-01-21T20:36:04.921Z,2.55
2018-01-21T20:38:31.809Z,2.33
2018-01-21T20:40:59.404Z,3.65
2018-01-21T20:46:00.202Z,3.92
2018-01-21T20:48:27.571Z,2.53
2018-01-21T20:51:00.615Z,3.78
2018-01-21T20:53:34.373Z,4.60
2018-01-21T20:56:02.006Z,2.70
2018-01-21T20:58:28.906Z,3.78
2018-01-21T21:00:55.785Z,3.50
2018-01-21T21:03:22.641Z,5.78
2018-01-21T21:05:49.515Z,3.78
2018-01-21T21:08:16.501Z,3.60
2018-01-21T21:10:43.782Z,2.25
2018-01-21T21:13:11.574Z,2.58
2018-01-21T21:15:39.407Z,5.87
2018-01-21T21:18:06.362Z,7.72
2018-01-21T21:20:33.241Z,6.20
2018-01-21T21:23:00.857Z,3.80
2018-01-21T21:25:27.701Z,3.92
2018-01-21T21:27:54.922Z,4.68
2018-01-21T21:30:21.838Z,3.80
2018-01-21T21:32:48.686Z,6.03
2018-01-21T21:35:16.331Z,5.20
2018-01-21T21:37:43.325Z,5.22
2018-01-21T21:40:10.178Z,5.00
2018-01-21T21:42:37.153Z,7.43
2018-01-21T21:45:04.786Z,6.37
2018-01-21T21:47:32.855Z,3.53
2018-01-21T21:49:59.811Z,4.70
2018-01-21T21:52:26.697Z,5.68
2018-01-21T21:54:53.562Z,4.25
2018-01-21T21:57:20.441Z,4.72
2018-01-21T21:59:47.322Z,6.30
2018-01-21T22:02:14.914Z,5.87
2018-01-21T22:04:42.478Z,8.00
2018-01-21T22:07:09.350Z,10.80
2018-01-21T22:09:37.063Z,11.98
2018-01-21T22:12:03.890Z,16.83
2018-01-21T22:14:30.749Z,16.02
2018-01-21T22:16:58.346Z,18.12
2018-01-21T22:19:25.273Z,13.00
2018-01-21T22:21:52.114Z,18.92
2018-01-21T22:24:18.980Z,17.73
2018-01-21T22:26:45.861Z,14.60
2018-01-21T22:29:12.846Z,11.20
2018-01-21T22:31:39.730Z,10.98
2018-01-21T22:34:06.570Z,13.13
2018-01-21T22:36:33.402Z,16.27
2018-01-21T22:39:00.271Z,13.93
2018-01-21T22:41:27.101Z,10.93
2018-01-21T22:43:53.949Z,13.35
2018-01-21T22:46:20.762Z,10.35
2018-01-21T22:48:47.694Z,12.60
2018-01-21T22:51:14.566Z,11.27
2018-01-21T22:53:41.487Z,10.00
2018-01-21T22:56:08.310Z,10.85
2018-01-21T22:58:35.940Z,11.40
2018-01-21T23:01:02.814Z,10.20
2018-01-21T23:03:30.414Z,9.07
2018-01-21T23:05:57.270Z,9.52
2018-01-21T23:08:24.984Z,9.73
2018-01-21T23:10:51.812Z,11.85
2018-01-21T23:13:19.433Z,8.60
2018-01-21T23:15:46.303Z,11.65
2018-01-21T23:18:13.381Z,9.38
2018-01-21T23:20:52.477Z,10.70
2018-01-21T23:23:19.398Z,10.68
2018-01-21T23:25:46.240Z,10.65
2018-01-21T23:28:13.111Z,12.05
2018-01-21T23:30:39.983Z,8.88
2018-01-21T23:33:06.857Z,10.18
2018-01-21T23:35:33.709Z,12.30
2018-01-21T23:38:00.645Z,8.70
2018-01-21T23:40:27.530Z,13.13
2018-01-21T23:42:54.400Z,11.90
2018-01-21T23:45:21.318Z,8.90
2018-01-21T23:47:48.266Z,10.70
2018-01-21T23:50:15.280Z,9.60
2018-01-21T23:52:42.154Z,12.60
2018-01-21T23:55:08.994Z,7.97
2018-01-21T23:57:36.779Z,5.60
